sensor_id;sensor_type;location;lat;lon;timestamp;temperature;humidity
20337;DHT22;10326;53.660;10.200;2023-08-21T03:28:07;15.70;94.60
20337;DHT22;10326;53.660;10.200;2023-08-21T03:30:34;17.00;96.90
20337;DHT22;10326;53.660;10.200;2023-08-21T03:33:02;17.30;96.50
20337;DHT22;10326;53.660;10.200;2023-08-21T03:35:30;17.50;96.20
20337;DHT22;10326;53.660;10.200;2023-08-21T03:37:57;17.70;95.90
20337;DHT22;10326;53.660;10.200;2023-08-21T03:40:26;17.80;96.00
20337;DHT22;10326;53.660;10.200;2023-08-21T03:42:54;17.90;95.50
20337;DHT22;10326;53.660;10.200;2023-08-21T03:45:23;18.10;95.50
20337;DHT22;10326;53.660;10.200;2023-08-21T03:47:53;18.20;95.30
20337;DHT22;10326;53.660;10.200;2023-08-21T03:50:20;18.30;95.20
20337;DHT22;10326;53.660;10.200;2023-08-21T03:52:48;18.30;95.10
20337;DHT22;10326;53.660;10.200;2023-08-21T03:55:15;18.40;95.10
20337;DHT22;10326;53.660;10.200;2023-08-21T03:57:42;18.40;95.00
20337;DHT22;10326;53.660;10.200;2023-08-21T04:00:10;18.50;94.90
20337;DHT22;10326;53.660;10.200;2023-08-21T04:02:42;18.60;94.90
20337;DHT22;10326;53.660;10.200;2023-08-21T04:05:10;18.60;94.80
20337;DHT22;10326;53.660;10.200;2023-08-21T04:07:37;18.60;94.80
20337;DHT22;10326;53.660;10.200;2023-08-21T04:10:05;18.70;94.70
20337;DHT22;10326;53.660;10.200;2023-08-21T04:12:33;18.70;94.70
20337;DHT22;10326;53.660;10.200;2023-08-21T04:15:00;18.80;94.60
20337;DHT22;10326;53.660;10.200;2023-08-21T04:17:28;18.80;94.60
20337;DHT22;10326;53.660;10.200;2023-08-21T04:19:57;18.80;94.60
20337;DHT22;10326;53.660;10.200;2023-08-21T04:22:24;18.80;94.60
20337;DHT22;10326;53.660;10.200;2023-08-21T04:24:51;18.90;94.60
20337;DHT22;10326;53.660;10.200;2023-08-21T04:27:18;18.90;94.50
20337;DHT22;10326;53.660;10.200;2023-08-21T04:29:46;18.90;94.50
20337;DHT22;10326;53.660;10.200;2023-08-21T04:32:13;18.90;94.70
20337;DHT22;10326;53.660;10.200;2023-08-21T04:34:41;19.00;94.40
20337;DHT22;10326;53.660;10.200;2023-08-21T04:37:09;19.00;94.40
20337;DHT22;10326;53.660;10.200;2023-08-21T04:39:37;19.00;94.40
20337;DHT22;10326;53.660;10.200;2023-08-21T04:42:04;19.00;94.40
20337;DHT22;10326;53.660;10.200;2023-08-21T04:44:31;19.00;94.30
20337;DHT22;10326;53.660;10.200;2023-08-21T04:47:19;19.10;94.30
20337;DHT22;10326;53.660;10.200;2023-08-21T04:49:48;19.10;94.10
20337;DHT22;10326;53.660;10.200;2023-08-21T04:52:17;19.10;94.20
20337;DHT22;10326;53.660;10.200;2023-08-21T04:54:45;19.10;94.20
20337;DHT22;10326;53.660;10.200;2023-08-21T04:57:13;19.10;94.20
20337;DHT22;10326;53.660;10.200;2023-08-21T04:59:40;19.10;94.40
20337;DHT22;10326;53.660;10.200;2023-08-21T05:02:08;19.10;94.20
20337;DHT22;10326;53.660;10.200;2023-08-21T05:04:37;19.10;94.20
20337;DHT22;10326;53.660;10.200;2023-08-21T05:07:05;19.20;94.30
20337;DHT22;10326;53.660;10.200;2023-08-21T05:09:33;19.20;94.50
20337;DHT22;10326;53.660;10.200;2023-08-21T05:12:02;19.20;94.50
20337;DHT22;10326;53.660;10.200;2023-08-21T05:14:29;19.20;94.50
20337;DHT22;10326;53.660;10.200;2023-08-21T05:16:57;19.30;94.60
20337;DHT22;10326;53.660;10.200;2023-08-21T05:19:25;19.30;94.70
20337;DHT22;10326;53.660;10.200;2023-08-21T05:21:52;19.40;94.80
20337;DHT22;10326;53.660;10.200;2023-08-21T05:24:19;19.40;94.80
20337;DHT22;10326;53.660;10.200;2023-08-21T05:26:54;19.40;94.80
20337;DHT22;10326;53.660;10.200;2023-08-21T05:29:21;19.50;95.00
20337;DHT22;10326;53.660;10.200;2023-08-21T05:31:48;19.50;95.00
20337;DHT22;10326;53.660;10.200;2023-08-21T05:34:15;19.60;95.00
20337;DHT22;10326;53.660;10.200;2023-08-21T05:36:44;19.60;95.00
20337;DHT22;10326;53.660;10.200;2023-08-21T05:39:11;19.70;95.10
20337;DHT22;10326;53.660;10.200;2023-08-21T05:41:39;19.70;95.10
20337;DHT22;10326;53.660;10.200;2023-08-21T05:44:07;19.80;95.10
20337;DHT22;10326;53.660;10.200;2023-08-21T05:46:35;19.80;95.10
20337;DHT22;10326;53.660;10.200;2023-08-21T05:49:02;19.90;95.10
20337;DHT22;10326;53.660;10.200;2023-08-21T05:51:30;19.90;95.10
20337;DHT22;10326;53.660;10.200;2023-08-21T05:53:57;19.90;95.10
20337;DHT22;10326;53.660;10.200;2023-08-21T05:56:24;20.00;95.10
20337;DHT22;10326;53.660;10.200;2023-08-21T05:58:52;20.10;95.20
20337;DHT22;10326;53.660;10.200;2023-08-21T06:01:24;20.10;95.20
20337;DHT22;10326;53.660;10.200;2023-08-21T06:03:51;20.20;95.30
20337;DHT22;10326;53.660;10.200;2023-08-21T06:06:29;20.20;95.30
20337;DHT22;10326;53.660;10.200;2023-08-21T06:08:56;20.30;95.30
20337;DHT22;10326;53.660;10.200;2023-08-21T06:11:23;20.30;95.40
20337;DHT22;10326;53.660;10.200;2023-08-21T06:13:51;20.40;95.30
20337;DHT22;10326;53.660;10.200;2023-08-21T06:16:18;20.40;95.40
20337;DHT22;10326;53.660;10.200;2023-08-21T06:18:49;20.40;95.30
20337;DHT22;10326;53.660;10.200;2023-08-21T06:21:16;20.50;95.50
20337;DHT22;10326;53.660;10.200;2023-08-21T06:23:44;20.50;95.40
20337;DHT22;10326;53.660;10.200;2023-08-21T06:26:11;20.50;95.40
20337;DHT22;10326;53.660;10.200;2023-08-21T06:28:38;20.60;95.50
20337;DHT22;10326;53.660;10.200;2023-08-21T06:31:05;20.60;95.40
20337;DHT22;10326;53.660;10.200;2023-08-21T06:33:36;20.70;95.50
20337;DHT22;10326;53.660;10.200;2023-08-21T06:36:05;20.70;95.50
20337;DHT22;10326;53.660;10.200;2023-08-21T06:38:32;20.70;95.50
20337;DHT22;10326;53.660;10.200;2023-08-21T06:41:00;20.70;95.40
20337;DHT22;10326;53.660;10.200;2023-08-21T06:43:27;20.80;95.40
20337;DHT22;10326;53.660;10.200;2023-08-21T06:45:56;20.80;95.40
20337;DHT22;10326;53.660;10.200;2023-08-21T06:48:24;20.80;95.40
20337;DHT22;10326;53.660;10.200;2023-08-21T06:50:51;20.90;95.40
20337;DHT22;10326;53.660;10.200;2023-08-21T06:53:20;20.90;95.40
20337;DHT22;10326;53.660;10.200;2023-08-21T06:55:48;21.00;95.40
20337;DHT22;10326;53.660;10.200;2023-08-21T06:58:15;21.00;95.40
20337;DHT22;10326;53.660;10.200;2023-08-21T07:00:42;21.00;95.40
20337;DHT22;10326;53.660;10.200;2023-08-21T07:03:09;21.10;95.40
20337;DHT22;10326;53.660;10.200;2023-08-21T07:05:38;21.10;95.40
20337;DHT22;10326;53.660;10.200;2023-08-21T07:08:05;21.10;95.40
20337;DHT22;10326;53.660;10.200;2023-08-21T07:10:37;21.20;95.40
20337;DHT22;10326;53.660;10.200;2023-08-21T07:13:04;21.20;95.40
20337;DHT22;10326;53.660;10.200;2023-08-21T07:15:31;21.30;95.40
20337;DHT22;10326;53.660;10.200;2023-08-21T07:17:58;21.30;95.40
20337;DHT22;10326;53.660;10.200;2023-08-21T07:20:25;21.30;95.30
20337;DHT22;10326;53.660;10.200;2023-08-21T07:22:53;21.40;95.30
20337;DHT22;10326;53.660;10.200;2023-08-21T07:25:20;21.40;95.10
20337;DHT22;10326;53.660;10.200;2023-08-21T07:27:49;21.40;95.00
20337;DHT22;10326;53.660;10.200;2023-08-21T07:30:19;21.40;95.00
20337;DHT22;10326;53.660;10.200;2023-08-21T07:32:46;21.50;95.00
20337;DHT22;10326;53.660;10.200;2023-08-21T07:35:13;21.50;94.90
20337;DHT22;10326;53.660;10.200;2023-08-21T07:37:43;21.50;94.80
20337;DHT22;10326;53.660;10.200;2023-08-21T07:40:12;21.60;94.70
20337;DHT22;10326;53.660;10.200;2023-08-21T07:42:40;21.60;94.70
20337;DHT22;10326;53.660;10.200;2023-08-21T07:45:09;21.60;94.70
20337;DHT22;10326;53.660;10.200;2023-08-21T07:47:37;21.60;94.70
20337;DHT22;10326;53.660;10.200;2023-08-21T07:50:05;21.70;94.60
20337;DHT22;10326;53.660;10.200;2023-08-21T07:52:34;21.70;94.50
20337;DHT22;10326;53.660;10.200;2023-08-21T07:55:02;21.80;94.40
20337;DHT22;10326;53.660;10.200;2023-08-21T07:57:29;21.80;94.20
20337;DHT22;10326;53.660;10.200;2023-08-21T07:59:57;21.80;94.20
20337;DHT22;10326;53.660;10.200;2023-08-21T08:02:25;21.90;94.20
20337;DHT22;10326;53.660;10.200;2023-08-21T08:04:52;21.90;94.10
20337;DHT22;10326;53.660;10.200;2023-08-21T08:07:20;22.00;94.00
20337;DHT22;10326;53.660;10.200;2023-08-21T08:09:47;22.00;93.90
20337;DHT22;10326;53.660;10.200;2023-08-21T08:12:14;22.00;93.90
20337;DHT22;10326;53.660;10.200;2023-08-21T08:14:41;22.00;93.90
20337;DHT22;10326;53.660;10.200;2023-08-21T08:17:08;22.10;93.90
20337;DHT22;10326;53.660;10.200;2023-08-21T08:19:37;22.10;93.70
20337;DHT22;10326;53.660;10.200;2023-08-21T08:22:05;22.20;93.70
20337;DHT22;10326;53.660;10.200;2023-08-21T08:24:32;22.20;93.40
20337;DHT22;10326;53.660;10.200;2023-08-21T08:26:59;22.20;93.40
20337;DHT22;10326;53.660;10.200;2023-08-21T08:29:27;22.30;93.50
20337;DHT22;10326;53.660;10.200;2023-08-21T08:31:54;22.30;93.30
20337;DHT22;10326;53.660;10.200;2023-08-21T08:34:21;22.40;93.30
20337;DHT22;10326;53.660;10.200;2023-08-21T08:36:50;22.40;93.40
20337;DHT22;10326;53.660;10.200;2023-08-21T08:39:17;22.40;93.20
20337;DHT22;10326;53.660;10.200;2023-08-21T08:41:50;22.40;93.00
20337;DHT22;10326;53.660;10.200;2023-08-21T08:44:19;22.50;92.90
20337;DHT22;10326;53.660;10.200;2023-08-21T08:46:47;22.50;93.10
20337;DHT22;10326;53.660;10.200;2023-08-21T08:49:15;22.60;92.70
20337;DHT22;10326;53.660;10.200;2023-08-21T08:51:46;22.60;92.70
20337;DHT22;10326;53.660;10.200;2023-08-21T08:54:16;22.70;92.60
20337;DHT22;10326;53.660;10.200;2023-08-21T08:56:44;22.70;92.80
20337;DHT22;10326;53.660;10.200;2023-08-21T08:59:11;22.70;92.70
20337;DHT22;10326;53.660;10.200;2023-08-21T09:01:40;22.80;92.50
20337;DHT22;10326;53.660;10.200;2023-08-21T09:04:07;22.80;92.50
20337;DHT22;10326;53.660;10.200;2023-08-21T09:06:36;22.90;92.40
20337;DHT22;10326;53.660;10.200;2023-08-21T09:09:04;22.90;92.20
20337;DHT22;10326;53.660;10.200;2023-08-21T09:11:33;22.90;92.50
20337;DHT22;10326;53.660;10.200;2023-08-21T09:14:01;23.00;92.20
20337;DHT22;10326;53.660;10.200;2023-08-21T09:16:28;23.00;92.20
20337;DHT22;10326;53.660;10.200;2023-08-21T09:18:56;23.10;92.20
20337;DHT22;10326;53.660;10.200;2023-08-21T09:21:24;23.10;92.00
20337;DHT22;10326;53.660;10.200;2023-08-21T09:23:57;23.20;92.10
20337;DHT22;10326;53.660;10.200;2023-08-21T09:26:25;23.20;92.10
20337;DHT22;10326;53.660;10.200;2023-08-21T09:28:54;23.30;92.10
20337;DHT22;10326;53.660;10.200;2023-08-21T09:31:29;23.30;91.90
20337;DHT22;10326;53.660;10.200;2023-08-21T09:33:57;23.30;91.60
20337;DHT22;10326;53.660;10.200;2023-08-21T09:36:26;23.40;91.50
20337;DHT22;10326;53.660;10.200;2023-08-21T09:38:54;23.40;91.40
20337;DHT22;10326;53.660;10.200;2023-08-21T09:41:21;23.40;91.50
20337;DHT22;10326;53.660;10.200;2023-08-21T09:43:50;23.50;91.30
20337;DHT22;10326;53.660;10.200;2023-08-21T09:46:25;23.50;91.00
20337;DHT22;10326;53.660;10.200;2023-08-21T09:48:54;23.50;90.60
20337;DHT22;10326;53.660;10.200;2023-08-21T09:51:21;23.50;90.90
20337;DHT22;10326;53.660;10.200;2023-08-21T09:53:50;23.50;90.50
20337;DHT22;10326;53.660;10.200;2023-08-21T09:56:18;23.50;90.30
20337;DHT22;10326;53.660;10.200;2023-08-21T09:58:49;23.50;90.30
20337;DHT22;10326;53.660;10.200;2023-08-21T10:01:20;23.50;90.40
20337;DHT22;10326;53.660;10.200;2023-08-21T10:03:48;23.60;90.50
20337;DHT22;10326;53.660;10.200;2023-08-21T10:06:17;23.60;90.40
20337;DHT22;10326;53.660;10.200;2023-08-21T10:08:46;23.60;90.40
20337;DHT22;10326;53.660;10.200;2023-08-21T10:11:19;23.70;90.20
20337;DHT22;10326;53.660;10.200;2023-08-21T10:13:47;23.70;90.30
20337;DHT22;10326;53.660;10.200;2023-08-21T10:16:16;23.70;90.30
20337;DHT22;10326;53.660;10.200;2023-08-21T10:18:46;23.80;90.20
20337;DHT22;10326;53.660;10.200;2023-08-21T10:21:16;23.80;90.10
20337;DHT22;10326;53.660;10.200;2023-08-21T10:23:49;23.80;89.90
20337;DHT22;10326;53.660;10.200;2023-08-21T10:26:22;23.90;89.50
20337;DHT22;10326;53.660;10.200;2023-08-21T10:28:54;23.90;89.40
20337;DHT22;10326;53.660;10.200;2023-08-21T10:31:35;23.90;88.90
20337;DHT22;10326;53.660;10.200;2023-08-21T10:34:05;24.00;88.30
20337;DHT22;10326;53.660;10.200;2023-08-21T10:37:07;24.00;89.30
20337;DHT22;10326;53.660;10.200;2023-08-21T10:39:39;24.00;89.30
20337;DHT22;10326;53.660;10.200;2023-08-21T10:42:09;24.10;89.70
20337;DHT22;10326;53.660;10.200;2023-08-21T10:44:52;24.10;89.40
20337;DHT22;10326;53.660;10.200;2023-08-21T10:47:32;24.10;88.20
20337;DHT22;10326;53.660;10.200;2023-08-21T10:50:02;24.20;88.30
20337;DHT22;10326;53.660;10.200;2023-08-21T10:52:34;24.30;88.90
20337;DHT22;10326;53.660;10.200;2023-08-21T10:55:04;24.30;88.10
20337;DHT22;10326;53.660;10.200;2023-08-21T10:57:34;24.30;88.50
20337;DHT22;10326;53.660;10.200;2023-08-21T11:00:04;24.40;88.80
20337;DHT22;10326;53.660;10.200;2023-08-21T11:02:36;24.40;88.80
20337;DHT22;10326;53.660;10.200;2023-08-21T11:05:06;24.50;88.70
20337;DHT22;10326;53.660;10.200;2023-08-21T11:07:37;24.50;88.60
20337;DHT22;10326;53.660;10.200;2023-08-21T11:10:06;24.60;88.40
20337;DHT22;10326;53.660;10.200;2023-08-21T11:12:34;24.60;87.30
20337;DHT22;10326;53.660;10.200;2023-08-21T11:15:01;24.70;87.00
20337;DHT22;10326;53.660;10.200;2023-08-21T11:17:29;24.70;87.00
20337;DHT22;10326;53.660;10.200;2023-08-21T11:20:01;24.70;86.60
20337;DHT22;10326;53.660;10.200;2023-08-21T11:22:32;24.70;85.70
20337;DHT22;10326;53.660;10.200;2023-08-21T11:24:59;24.80;86.60
20337;DHT22;10326;53.660;10.200;2023-08-21T11:27:27;24.80;86.90
20337;DHT22;10326;53.660;10.200;2023-08-21T11:29:55;24.90;87.40
20337;DHT22;10326;53.660;10.200;2023-08-21T11:32:24;24.90;86.90
20337;DHT22;10326;53.660;10.200;2023-08-21T11:34:52;25.00;85.70
20337;DHT22;10326;53.660;10.200;2023-08-21T11:37:24;25.00;86.30
20337;DHT22;10326;53.660;10.200;2023-08-21T11:39:54;25.10;85.90
20337;DHT22;10326;53.660;10.200;2023-08-21T11:42:29;25.20;86.00
20337;DHT22;10326;53.660;10.200;2023-08-21T11:44:59;25.20;86.10
20337;DHT22;10326;53.660;10.200;2023-08-21T11:47:31;25.30;86.10
20337;DHT22;10326;53.660;10.200;2023-08-21T11:50:02;25.40;84.90
20337;DHT22;10326;53.660;10.200;2023-08-21T11:52:33;25.50;84.60
20337;DHT22;10326;53.660;10.200;2023-08-21T11:55:07;25.50;84.30
20337;DHT22;10326;53.660;10.200;2023-08-21T11:57:46;25.60;84.20
20337;DHT22;10326;53.660;10.200;2023-08-21T12:00:14;25.70;85.20
20337;DHT22;10326;53.660;10.200;2023-08-21T12:02:53;25.70;84.50
20337;DHT22;10326;53.660;10.200;2023-08-21T12:05:21;25.80;83.20
20337;DHT22;10326;53.660;10.200;2023-08-21T12:07:50;25.90;83.80
20337;DHT22;10326;53.660;10.200;2023-08-21T12:10:23;25.90;83.40
20337;DHT22;10326;53.660;10.200;2023-08-21T12:12:55;26.00;82.80
20337;DHT22;10326;53.660;10.200;2023-08-21T12:15:34;26.10;82.40
20337;DHT22;10326;53.660;10.200;2023-08-21T12:18:02;26.20;83.00
20337;DHT22;10326;53.660;10.200;2023-08-21T12:20:30;26.30;83.10
20337;DHT22;10326;53.660;10.200;2023-08-21T12:23:00;26.30;82.50
20337;DHT22;10326;53.660;10.200;2023-08-21T12:25:28;26.40;82.80
20337;DHT22;10326;53.660;10.200;2023-08-21T12:28:07;26.50;82.70
20337;DHT22;10326;53.660;10.200;2023-08-21T12:30:37;26.60;81.60
20337;DHT22;10326;53.660;10.200;2023-08-21T12:33:04;26.60;80.10
20337;DHT22;10326;53.660;10.200;2023-08-21T12:35:35;26.70;81.70
20337;DHT22;10326;53.660;10.200;2023-08-21T12:38:10;26.80;81.70
20337;DHT22;10326;53.660;10.200;2023-08-21T12:40:39;26.90;80.30
20337;DHT22;10326;53.660;10.200;2023-08-21T12:43:13;27.00;81.10
20337;DHT22;10326;53.660;10.200;2023-08-21T12:45:40;27.10;82.20
20337;DHT22;10326;53.660;10.200;2023-08-21T12:52:24;27.30;80.40
20337;DHT22;10326;53.660;10.200;2023-08-21T12:54:53;27.50;81.30
20337;DHT22;10326;53.660;10.200;2023-08-21T12:57:21;27.60;79.50
20337;DHT22;10326;53.660;10.200;2023-08-21T13:00:12;27.60;78.20
20337;DHT22;10326;53.660;10.200;2023-08-21T13:02:40;27.70;78.60
20337;DHT22;10326;53.660;10.200;2023-08-21T13:06:39;27.70;79.50
20337;DHT22;10326;53.660;10.200;2023-08-21T13:08:12;27.70;76.70
20337;DHT22;10326;53.660;10.200;2023-08-21T13:11:33;27.70;77.10
20337;DHT22;10326;53.660;10.200;2023-08-21T13:14:14;27.70;76.10
20337;DHT22;10326;53.660;10.200;2023-08-21T13:16:45;27.60;76.60
20337;DHT22;10326;53.660;10.200;2023-08-21T13:19:12;27.50;76.60
20337;DHT22;10326;53.660;10.200;2023-08-21T13:21:39;27.50;76.50
20337;DHT22;10326;53.660;10.200;2023-08-21T13:24:17;27.50;75.70
20337;DHT22;10326;53.660;10.200;2023-08-21T13:26:46;27.50;74.80
20337;DHT22;10326;53.660;10.200;2023-08-21T13:29:13;27.50;75.50
20337;DHT22;10326;53.660;10.200;2023-08-21T13:31:40;27.60;76.30
20337;DHT22;10326;53.660;10.200;2023-08-21T13:34:07;27.60;76.40
20337;DHT22;10326;53.660;10.200;2023-08-21T13:36:34;27.70;75.70
20337;DHT22;10326;53.660;10.200;2023-08-21T13:39:02;27.80;75.80
20337;DHT22;10326;53.660;10.200;2023-08-21T13:41:31;27.80;76.10
20337;DHT22;10326;53.660;10.200;2023-08-21T13:44:00;27.90;75.20
20337;DHT22;10326;53.660;10.200;2023-08-21T13:46:27;27.90;73.40
20337;DHT22;10326;53.660;10.200;2023-08-21T13:48:54;28.00;72.00
20337;DHT22;10326;53.660;10.200;2023-08-21T13:51:21;28.00;71.90
20337;DHT22;10326;53.660;10.200;2023-08-21T13:53:48;27.90;71.60
20337;DHT22;10326;53.660;10.200;2023-08-21T13:56:16;28.00;71.90
20337;DHT22;10326;53.660;10.200;2023-08-21T13:58:43;28.00;71.90
20337;DHT22;10326;53.660;10.200;2023-08-21T14:01:12;28.00;72.10
20337;DHT22;10326;53.660;10.200;2023-08-21T14:03:40;28.00;72.10
20337;DHT22;10326;53.660;10.200;2023-08-21T14:06:08;28.10;71.70
20337;DHT22;10326;53.660;10.200;2023-08-21T14:08:37;28.20;72.30
20337;DHT22;10326;53.660;10.200;2023-08-21T14:11:04;28.20;70.60
20337;DHT22;10326;53.660;10.200;2023-08-21T14:13:32;28.20;70.10
20337;DHT22;10326;53.660;10.200;2023-08-21T14:16:05;28.30;69.60
20337;DHT22;10326;53.660;10.200;2023-08-21T14:18:35;28.30;69.10
20337;DHT22;10326;53.660;10.200;2023-08-21T14:21:02;28.40;70.50
20337;DHT22;10326;53.660;10.200;2023-08-21T14:23:29;28.50;68.80
20337;DHT22;10326;53.660;10.200;2023-08-21T14:25:56;28.40;67.90
20337;DHT22;10326;53.660;10.200;2023-08-21T14:28:25;28.50;68.20
20337;DHT22;10326;53.660;10.200;2023-08-21T14:30:52;28.40;68.40
20337;DHT22;10326;53.660;10.200;2023-08-21T14:33:19;28.40;66.60
20337;DHT22;10326;53.660;10.200;2023-08-21T14:35:48;28.40;66.30
20337;DHT22;10326;53.660;10.200;2023-08-21T14:38:17;28.40;67.20
20337;DHT22;10326;53.660;10.200;2023-08-21T14:40:44;28.50;66.70
20337;DHT22;10326;53.660;10.200;2023-08-21T14:43:11;28.40;65.50
20337;DHT22;10326;53.660;10.200;2023-08-21T14:45:38;28.40;66.20
20337;DHT22;10326;53.660;10.200;2023-08-21T14:48:06;28.40;66.70
20337;DHT22;10326;53.660;10.200;2023-08-21T14:50:33;28.40;65.60
20337;DHT22;10326;53.660;10.200;2023-08-21T14:53:02;28.40;64.50
20337;DHT22;10326;53.660;10.200;2023-08-21T14:55:29;28.40;64.50
20337;DHT22;10326;53.660;10.200;2023-08-21T14:57:56;28.30;63.80
20337;DHT22;10326;53.660;10.200;2023-08-21T15:00:24;28.30;63.30
20337;DHT22;10326;53.660;10.200;2023-08-21T15:02:52;28.20;64.90
20337;DHT22;10326;53.660;10.200;2023-08-21T15:05:19;28.10;62.30
20337;DHT22;10326;53.660;10.200;2023-08-21T15:07:47;28.10;63.10
20337;DHT22;10326;53.660;10.200;2023-08-21T15:10:16;28.00;63.70
20337;DHT22;10326;53.660;10.200;2023-08-21T15:12:44;28.00;62.90
20337;DHT22;10326;53.660;10.200;2023-08-21T15:15:11;28.00;63.00
20337;DHT22;10326;53.660;10.200;2023-08-21T15:17:38;27.90;63.40
20337;DHT22;10326;53.660;10.200;2023-08-21T15:20:07;27.90;63.70
20337;DHT22;10326;53.660;10.200;2023-08-21T15:22:37;27.90;64.30
20337;DHT22;10326;53.660;10.200;2023-08-21T15:25:05;27.90;63.80
20337;DHT22;10326;53.660;10.200;2023-08-21T15:27:34;27.90;64.10
20337;DHT22;10326;53.660;10.200;2023-08-21T15:30:01;27.90;64.70
20337;DHT22;10326;53.660;10.200;2023-08-21T15:32:29;27.90;64.10
20337;DHT22;10326;53.660;10.200;2023-08-21T15:34:57;27.90;61.20
20337;DHT22;10326;53.660;10.200;2023-08-21T15:37:25;27.90;59.60
20337;DHT22;10326;53.660;10.200;2023-08-21T15:39:53;27.80;59.50
20337;DHT22;10326;53.660;10.200;2023-08-21T15:42:20;27.80;59.80
20337;DHT22;10326;53.660;10.200;2023-08-21T15:44:49;27.80;60.40
20337;DHT22;10326;53.660;10.200;2023-08-21T15:47:16;27.70;60.10
20337;DHT22;10326;53.660;10.200;2023-08-21T15:49:44;27.70;60.00
20337;DHT22;10326;53.660;10.200;2023-08-21T15:52:11;27.70;60.30
20337;DHT22;10326;53.660;10.200;2023-08-21T15:54:38;27.60;59.40
20337;DHT22;10326;53.660;10.200;2023-08-21T15:57:06;27.60;59.80
20337;DHT22;10326;53.660;10.200;2023-08-21T15:59:33;27.60;60.20
20337;DHT22;10326;53.660;10.200;2023-08-21T16:02:02;27.60;60.40
20337;DHT22;10326;53.660;10.200;2023-08-21T16:04:29;27.50;59.50
20337;DHT22;10326;53.660;10.200;2023-08-21T16:06:56;27.50;59.10
20337;DHT22;10326;53.660;10.200;2023-08-21T16:09:23;27.50;59.40
20337;DHT22;10326;53.660;10.200;2023-08-21T16:11:50;27.50;58.80
20337;DHT22;10326;53.660;10.200;2023-08-21T16:14:18;27.40;58.80
20337;DHT22;10326;53.660;10.200;2023-08-21T16:16:45;27.40;60.00
20337;DHT22;10326;53.660;10.200;2023-08-21T16:19:13;27.40;60.20
20337;DHT22;10326;53.660;10.200;2023-08-21T16:21:40;27.30;60.00
20337;DHT22;10326;53.660;10.200;2023-08-21T16:24:08;27.30;59.20
20337;DHT22;10326;53.660;10.200;2023-08-21T16:26:36;27.30;59.90
20337;DHT22;10326;53.660;10.200;2023-08-21T16:29:03;27.20;59.10
20337;DHT22;10326;53.660;10.200;2023-08-21T16:31:30;27.20;58.80
20337;DHT22;10326;53.660;10.200;2023-08-21T16:33:57;27.20;59.70
20337;DHT22;10326;53.660;10.200;2023-08-21T16:36:26;27.20;60.20
20337;DHT22;10326;53.660;10.200;2023-08-21T16:38:53;27.20;60.20
20337;DHT22;10326;53.660;10.200;2023-08-21T16:41:20;27.10;60.40
20337;DHT22;10326;53.660;10.200;2023-08-21T16:43:47;27.10;60.90
20337;DHT22;10326;53.660;10.200;2023-08-21T16:46:15;27.10;59.70
20337;DHT22;10326;53.660;10.200;2023-08-21T16:48:42;27.10;61.40
20337;DHT22;10326;53.660;10.200;2023-08-21T16:51:09;27.10;61.60
20337;DHT22;10326;53.660;10.200;2023-08-21T16:53:37;27.10;60.60
20337;DHT22;10326;53.660;10.200;2023-08-21T16:56:06;27.00;59.80
20337;DHT22;10326;53.660;10.200;2023-08-21T16:58:33;27.00;59.30
20337;DHT22;10326;53.660;10.200;2023-08-21T17:01:01;27.00;59.90
20337;DHT22;10326;53.660;10.200;2023-08-21T17:03:28;26.90;59.50
20337;DHT22;10326;53.660;10.200;2023-08-21T17:05:55;26.90;60.40
20337;DHT22;10326;53.660;10.200;2023-08-21T17:08:22;26.90;61.50
20337;DHT22;10326;53.660;10.200;2023-08-21T17:10:51;26.90;62.20
20337;DHT22;10326;53.660;10.200;2023-08-21T17:13:18;26.80;62.70
20337;DHT22;10326;53.660;10.200;2023-08-21T17:15:45;26.80;62.60
20337;DHT22;10326;53.660;10.200;2023-08-21T17:18:14;26.80;61.80
20337;DHT22;10326;53.660;10.200;2023-08-21T17:20:41;26.80;60.60
20337;DHT22;10326;53.660;10.200;2023-08-21T17:23:09;26.70;61.30
20337;DHT22;10326;53.660;10.200;2023-08-21T17:25:36;26.70;62.50
20337;DHT22;10326;53.660;10.200;2023-08-21T17:28:05;26.70;63.40
20337;DHT22;10326;53.660;10.200;2023-08-21T17:30:35;26.60;62.30
20337;DHT22;10326;53.660;10.200;2023-08-21T17:33:03;26.60;63.20
20337;DHT22;10326;53.660;10.200;2023-08-21T17:35:30;26.50;62.60
20337;DHT22;10326;53.660;10.200;2023-08-21T17:37:58;26.50;63.10
20337;DHT22;10326;53.660;10.200;2023-08-21T17:40:25;26.50;63.50
20337;DHT22;10326;53.660;10.200;2023-08-21T17:42:52;26.40;63.00
20337;DHT22;10326;53.660;10.200;2023-08-21T17:45:20;26.30;63.30
20337;DHT22;10326;53.660;10.200;2023-08-21T17:47:48;26.30;63.90
20337;DHT22;10326;53.660;10.200;2023-08-21T17:50:15;26.20;64.40
20337;DHT22;10326;53.660;10.200;2023-08-21T17:52:42;26.10;64.80
20337;DHT22;10326;53.660;10.200;2023-08-21T17:55:09;26.10;65.40
20337;DHT22;10326;53.660;10.200;2023-08-21T17:57:36;26.10;65.90
20337;DHT22;10326;53.660;10.200;2023-08-21T18:00:05;26.00;66.20
20337;DHT22;10326;53.660;10.200;2023-08-21T18:02:40;25.90;66.80
20337;DHT22;10326;53.660;10.200;2023-08-21T18:05:08;25.80;67.50
20337;DHT22;10326;53.660;10.200;2023-08-21T18:07:36;25.70;68.40
20337;DHT22;10326;53.660;10.200;2023-08-21T18:10:04;25.70;68.00
20337;DHT22;10326;53.660;10.200;2023-08-21T18:12:32;25.60;68.20
20337;DHT22;10326;53.660;10.200;2023-08-21T18:15:02;25.50;68.80
20337;DHT22;10326;53.660;10.200;2023-08-21T18:17:30;25.40;69.30
20337;DHT22;10326;53.660;10.200;2023-08-21T18:19:58;25.30;69.40
20337;DHT22;10326;53.660;10.200;2023-08-21T18:22:25;25.30;69.70
20337;DHT22;10326;53.660;10.200;2023-08-21T18:24:52;25.20;69.90
20337;DHT22;10326;53.660;10.200;2023-08-21T18:27:20;25.10;70.00
20337;DHT22;10326;53.660;10.200;2023-08-21T18:29:49;25.00;70.00
20337;DHT22;10326;53.660;10.200;2023-08-21T18:32:17;25.00;70.20
20337;DHT22;10326;53.660;10.200;2023-08-21T18:34:45;24.90;70.70
20337;DHT22;10326;53.660;10.200;2023-08-21T18:37:14;24.80;70.60
20337;DHT22;10326;53.660;10.200;2023-08-21T18:39:41;24.70;71.10
20337;DHT22;10326;53.660;10.200;2023-08-21T18:42:08;24.60;71.00
20337;DHT22;10326;53.660;10.200;2023-08-21T18:44:35;24.50;71.20
20337;DHT22;10326;53.660;10.200;2023-08-21T18:47:03;24.50;71.60
20337;DHT22;10326;53.660;10.200;2023-08-21T18:49:30;24.40;71.80
20337;DHT22;10326;53.660;10.200;2023-08-21T18:51:57;24.30;71.40
20337;DHT22;10326;53.660;10.200;2023-08-21T18:54:26;24.20;71.60
20337;DHT22;10326;53.660;10.200;2023-08-21T18:56:53;24.10;72.10